createdAt,value
2018-04-17T00:01:44.818Z,101261.91
2018-04-17T00:04:13.184Z,101260.80
2018-04-17T00:06:41.598Z,101255.78
2018-04-17T00:09:09.941Z,101259.06
2018-04-17T00:11:38.294Z,101266.63
2018-04-17T00:14:07.141Z,101263.86
2018-04-17T00:16:35.537Z,101262.23
2018-04-17T00:19:03.939Z,101270.20
2018-04-17T00:21:32.794Z,101268.73
2018-04-17T00:24:01.150Z,101266.36
2018-04-17T00:26:29.548Z,101274.44
2018-04-17T00:28:57.910Z,101283.86
2018-04-17T00:31:26.311Z,101277.98
2018-04-17T00:33:54.683Z,101288.97
2018-04-17T00:36:24.070Z,101290.28
2018-04-17T00:38:52.429Z,101289.58
2018-04-17T00:41:20.799Z,101302.38
2018-04-17T00:43:49.555Z,101305.80
2018-04-17T00:46:17.927Z,101303.09
2018-04-17T00:48:46.390Z,101311.36
2018-04-17T00:51:14.807Z,101320.77
2018-04-17T00:53:55.890Z,101331.75
2018-04-17T00:56:24.652Z,101339.36
2018-04-17T00:58:53.100Z,101335.77
2018-04-17T01:01:21.494Z,101336.13
2018-04-17T01:03:49.878Z,101343.61
2018-04-17T01:06:18.244Z,101346.34
2018-04-17T01:08:46.631Z,101361.34
2018-04-17T01:11:14.986Z,101356.98
2018-04-17T01:13:43.342Z,101353.42
2018-04-17T01:16:12.170Z,101355.71
2018-04-17T01:18:40.518Z,101358.78
2018-04-17T01:21:08.898Z,101355.67
2018-04-17T01:23:37.316Z,101355.71
2018-04-17T01:26:05.795Z,101360.14
2018-04-17T01:28:34.147Z,101359.66
2018-04-17T01:31:02.521Z,101362.30
2018-04-17T01:33:30.886Z,101361.86
2018-04-17T01:35:59.649Z,101365.83
2018-04-17T01:38:28.090Z,101366.25
2018-04-17T01:40:56.438Z,101365.82
2018-04-17T01:43:24.869Z,101379.87
2018-04-17T01:45:53.342Z,101381.66
2018-04-17T01:48:21.694Z,101377.70
2018-04-17T01:50:50.074Z,101376.80
2018-04-17T01:53:18.434Z,101375.06
2018-04-17T01:55:46.787Z,101379.87
2018-04-17T01:58:15.181Z,101379.47
2018-04-17T02:00:43.938Z,101385.16
2018-04-17T02:03:12.322Z,101387.81
2018-04-17T02:05:40.679Z,101389.56
2018-04-17T02:08:09.046Z,101391.77
2018-04-17T02:10:37.406Z,101388.22
2018-04-17T02:13:05.760Z,101392.63
2018-04-17T02:15:34.604Z,101392.20
2018-04-17T02:18:02.968Z,101395.27
2018-04-17T02:20:31.326Z,101392.63
2018-04-17T02:22:59.694Z,101408.45
2018-04-17T02:25:28.114Z,101410.66
2018-04-17T02:27:56.483Z,101409.77
2018-04-17T02:30:24.845Z,101418.97
2018-04-17T02:32:53.254Z,101413.28
2018-04-17T02:35:21.618Z,101411.95
2018-04-17T02:37:49.973Z,101416.78
2018-04-17T02:40:18.453Z,101419.85
2018-04-17T02:42:47.288Z,101421.60
2018-04-17T02:45:15.663Z,101424.26
2018-04-17T02:47:44.050Z,101422.94
2018-04-17T02:50:12.526Z,101426.40
2018-04-17T02:52:41.005Z,101424.22
2018-04-17T02:55:09.393Z,101426.84
2018-04-17T02:57:37.742Z,101423.80
2018-04-17T03:00:06.969Z,101425.55
2018-04-17T03:02:35.323Z,101427.27
2018-04-17T03:05:03.716Z,101429.39
2018-04-17T03:07:32.091Z,101436.48
2018-04-17T03:10:00.469Z,101429.92
2018-04-17T03:12:28.859Z,101435.20
2018-04-17T03:14:57.211Z,101439.12
2018-04-17T03:17:25.599Z,101439.59
2018-04-17T03:19:53.958Z,101448.80
2018-04-17T03:22:22.320Z,101453.20
2018-04-17T03:24:51.149Z,101445.28
2018-04-17T03:27:19.540Z,101447.04
2018-04-17T03:29:47.922Z,101458.45
2018-04-17T03:32:16.285Z,101463.69
2018-04-17T03:34:44.639Z,101454.08
2018-04-17T03:37:12.997Z,101457.11
2018-04-17T03:39:41.849Z,101464.12
2018-04-17T03:42:10.225Z,101466.38
2018-04-17T03:44:39.164Z,101474.28
2018-04-17T03:47:07.915Z,101469.41
2018-04-17T03:49:36.274Z,101474.69
2018-04-17T03:52:04.632Z,101468.13
2018-04-17T03:54:33.010Z,101475.62
2018-04-17T03:57:01.358Z,101479.98
2018-04-17T03:59:30.115Z,101485.23
2018-04-17T04:01:58.483Z,101474.28
2018-04-17T04:04:26.838Z,101481.30
2018-04-17T04:06:55.215Z,101487.47
2018-04-17T04:09:23.581Z,101490.53
2018-04-17T04:11:52.093Z,101490.50
2018-04-17T04:14:20.462Z,101486.06
2018-04-17T04:17:06.715Z,101488.31
2018-04-17T04:19:53.518Z,101491.81
2018-04-17T04:22:40.170Z,101496.59
2018-04-17T04:25:27.283Z,101508.47
2018-04-17T04:27:55.645Z,101515.05
2018-04-17T04:30:24.017Z,101510.70
2018-04-17T04:32:52.783Z,101516.89
2018-04-17T04:35:22.787Z,101517.37
2018-04-17T04:37:51.244Z,101524.41
2018-04-17T04:40:19.630Z,101525.33
2018-04-17T04:42:48.001Z,101531.48
2018-04-17T04:45:16.399Z,101537.19
2018-04-17T04:47:44.862Z,101548.13
2018-04-17T04:50:13.214Z,101542.80
2018-04-17T04:52:41.567Z,101545.37
2018-04-17T04:55:10.327Z,101547.52
2018-04-17T04:57:38.706Z,101547.00
2018-04-17T05:00:07.087Z,101555.20
2018-04-17T05:02:35.447Z,101555.59
2018-04-17T05:05:03.823Z,101563.97
2018-04-17T05:07:32.205Z,101567.23
2018-04-17T05:10:01.201Z,101576.86
2018-04-17T05:12:29.586Z,101580.58
2018-04-17T05:14:57.930Z,101582.36
2018-04-17T05:17:26.274Z,101589.67
2018-04-17T05:19:55.041Z,101594.56
2018-04-17T05:22:23.502Z,101598.88
2018-04-17T05:24:51.890Z,101605.66
2018-04-17T05:27:20.241Z,101607.16
2018-04-17T05:29:48.585Z,101612.80
2018-04-17T05:32:17.429Z,101615.75
2018-04-17T05:34:45.798Z,101624.95
2018-04-17T05:37:14.182Z,101627.48
2018-04-17T05:39:42.569Z,101630.02
2018-04-17T05:42:10.923Z,101631.77
2018-04-17T05:44:39.321Z,101639.95
2018-04-17T05:47:07.669Z,101644.17
2018-04-17T05:49:36.038Z,101648.72
2018-04-17T05:52:04.403Z,101646.67
2018-04-17T05:54:33.171Z,101654.30
2018-04-17T05:57:01.610Z,101657.16
2018-04-17T05:59:29.987Z,101655.73
2018-04-17T06:01:58.359Z,101662.89
2018-04-17T06:04:26.721Z,101661.23
2018-04-17T06:06:55.118Z,101672.72
2018-04-17T06:09:23.474Z,101673.38
2018-04-17T06:11:52.226Z,101680.95
2018-04-17T06:14:20.610Z,101672.04
2018-04-17T06:16:49.072Z,101681.02
2018-04-17T06:19:17.445Z,101681.05
2018-04-17T06:21:45.835Z,101686.81
2018-04-17T06:24:14.190Z,101687.63
